createdAt,value
2022-12-01T00:00:57.818Z,3.70
2022-12-01T00:03:28.634Z,3.70
2022-12-01T00:06:03.002Z,3.70
2022-12-01T00:08:36.931Z,3.70
2022-12-01T00:11:06.109Z,3.80
2022-12-01T00:13:36.693Z,3.90
2022-12-01T00:16:15.690Z,4.00
2022-12-01T00:18:46.626Z,3.90
2022-12-01T00:21:18.422Z,3.90
2022-12-01T00:23:54.561Z,3.90
2022-12-01T00:26:25.820Z,4.00
2022-12-01T00:28:58.161Z,4.10
2022-12-01T00:31:29.344Z,4.10
2022-12-01T00:33:59.386Z,4.20
2022-12-01T00:36:29.404Z,4.00
2022-12-01T00:39:02.158Z,4.00
2022-12-01T00:41:32.219Z,4.10
2022-12-01T00:44:02.548Z,4.10
2022-12-01T00:46:32.579Z,4.10
2022-12-01T00:49:02.678Z,4.20
2022-12-01T00:51:33.049Z,4.20
2022-12-01T00:54:05.894Z,4.20
2022-12-01T00:56:36.026Z,4.30
2022-12-01T00:59:06.102Z,4.20
2022-12-01T01:01:36.614Z,4.10
2022-12-01T01:04:07.447Z,4.00
2022-12-01T01:06:37.511Z,3.80
2022-12-01T01:09:10.412Z,3.90
2022-12-01T01:11:40.610Z,3.70
2022-12-01T01:14:11.792Z,3.80
2022-12-01T01:16:41.852Z,3.90
2022-12-01T01:19:12.531Z,3.90
2022-12-01T01:21:42.587Z,3.80
2022-12-01T01:24:15.381Z,3.80
2022-12-01T01:26:45.387Z,3.80
2022-12-01T01:29:15.419Z,3.80
2022-12-01T01:31:45.447Z,3.60
2022-12-01T01:34:15.478Z,3.70
2022-12-01T01:36:46.449Z,3.70
2022-12-01T01:39:19.584Z,3.80
2022-12-01T01:41:49.705Z,3.80
2022-12-01T01:44:54.467Z,3.80
2022-12-01T01:47:30.788Z,3.80
2022-12-01T01:50:08.498Z,3.80
2022-12-01T01:52:46.033Z,3.70
2022-12-01T01:55:19.577Z,3.80
2022-12-01T01:57:49.676Z,3.80
2022-12-01T02:00:23.097Z,3.90
2022-12-01T02:02:56.028Z,3.90
2022-12-01T02:05:32.662Z,4.00
2022-12-01T02:08:05.510Z,3.90
2022-12-01T02:11:02.632Z,3.70
2022-12-01T02:13:45.299Z,3.80
2022-12-01T02:16:24.716Z,3.80
2022-12-01T02:19:12.799Z,3.80
2022-12-01T02:22:04.525Z,3.70
2022-12-01T02:25:12.191Z,3.50
2022-12-01T02:28:25.844Z,3.60
2022-12-01T02:31:04.388Z,3.50
2022-12-01T02:33:45.502Z,3.40
2022-12-01T02:36:22.338Z,3.40
2022-12-01T02:39:02.696Z,3.50
2022-12-01T02:41:42.486Z,3.40
2022-12-01T02:44:21.355Z,3.40
2022-12-01T02:47:02.310Z,3.40
2022-12-01T02:49:39.346Z,3.40
2022-12-01T02:52:11.904Z,3.40
2022-12-01T02:54:42.723Z,3.40
2022-12-01T02:57:15.324Z,3.40
2022-12-01T02:59:51.709Z,3.40
2022-12-01T03:02:43.071Z,3.50
2022-12-01T03:05:25.314Z,3.40
2022-12-01T03:08:07.264Z,3.40
2022-12-01T03:10:51.177Z,3.40
2022-12-01T03:13:35.350Z,3.20
2022-12-01T03:16:15.197Z,3.10
2022-12-01T03:18:58.177Z,3.10
2022-12-01T03:21:37.427Z,3.20
2022-12-01T03:24:15.785Z,3.20
2022-12-01T03:26:52.625Z,3.20
2022-12-01T03:29:28.703Z,3.10
2022-12-01T03:32:06.446Z,3.20
2022-12-01T03:34:46.639Z,3.20
2022-12-01T03:37:26.940Z,3.20
2022-12-01T03:40:00.823Z,3.20
2022-12-01T03:42:38.650Z,3.30
2022-12-01T03:45:17.231Z,3.30
2022-12-01T03:47:48.635Z,3.20
2022-12-01T03:50:21.585Z,3.30
2022-12-01T03:53:05.175Z,3.30
2022-12-01T03:55:41.125Z,3.40
2022-12-01T03:58:16.931Z,3.20
2022-12-01T04:00:50.052Z,3.20
2022-12-01T04:03:22.932Z,3.30
2022-12-01T04:05:56.156Z,3.10
2022-12-01T04:08:26.533Z,3.10
2022-12-01T04:10:56.602Z,3.10
2022-12-01T04:13:24.002Z,3.00
2022-12-01T04:15:56.302Z,3.10
2022-12-01T04:18:26.330Z,3.20
2022-12-01T04:20:59.145Z,3.20
2022-12-01T04:23:41.619Z,3.30
2022-12-01T04:26:15.744Z,3.40
2022-12-01T04:28:46.045Z,3.40
2022-12-01T04:31:16.097Z,3.40
2022-12-01T04:33:46.435Z,3.40
2022-12-01T04:36:19.041Z,3.40
2022-12-01T04:38:49.177Z,3.40
2022-12-01T04:41:19.781Z,3.40
2022-12-01T04:43:50.051Z,3.40
2022-12-01T04:46:20.145Z,3.40
2022-12-01T04:48:50.205Z,3.50
2022-12-01T04:51:23.013Z,3.60
2022-12-01T04:53:53.510Z,3.60
2022-12-01T04:56:23.526Z,3.50
2022-12-01T04:58:54.017Z,3.30
2022-12-01T05:01:24.068Z,3.30
2022-12-01T05:03:54.360Z,3.30
2022-12-01T05:06:29.462Z,3.30
2022-12-01T05:09:03.276Z,3.20
2022-12-01T05:11:34.997Z,3.20
2022-12-01T05:14:05.269Z,3.10
2022-12-01T05:16:36.542Z,3.10
2022-12-01T05:19:21.552Z,3.20
2022-12-01T05:21:54.879Z,3.30
2022-12-01T05:24:24.887Z,3.40
2022-12-01T05:26:54.968Z,3.20
2022-12-01T05:29:25.021Z,3.10
2022-12-01T05:31:55.125Z,3.00
2022-12-01T05:34:25.223Z,3.10
2022-12-01T05:36:57.815Z,3.10
2022-12-01T05:39:27.815Z,3.10
2022-12-01T05:41:57.839Z,3.30
2022-12-01T05:44:27.930Z,3.20
2022-12-01T05:46:57.922Z,3.20
2022-12-01T05:49:27.987Z,3.20
2022-12-01T05:52:00.569Z,3.10
2022-12-01T05:54:32.916Z,3.10
2022-12-01T05:57:03.018Z,3.10
2022-12-01T05:59:33.020Z,3.20
2022-12-01T06:02:03.277Z,3.20
2022-12-01T06:04:33.409Z,3.10
2022-12-01T06:07:06.006Z,3.10
2022-12-01T06:09:36.137Z,3.10
2022-12-01T06:12:06.500Z,3.10
2022-12-01T06:14:36.580Z,3.10
2022-12-01T06:17:06.752Z,3.10
2022-12-01T06:19:36.791Z,3.10
2022-12-01T06:22:09.411Z,3.00
2022-12-01T06:24:39.468Z,3.10
2022-12-01T06:27:10.438Z,3.30
2022-12-01T06:29:42.280Z,3.40
2022-12-01T06:32:13.903Z,3.50
2022-12-01T06:34:43.982Z,3.50
2022-12-01T06:37:17.943Z,3.60
2022-12-01T06:39:48.394Z,3.60
2022-12-01T06:42:18.703Z,3.50
2022-12-01T06:44:48.920Z,3.30
2022-12-01T06:47:18.954Z,3.20
2022-12-01T06:49:49.301Z,3.10
2022-12-01T06:52:22.109Z,3.10
2022-12-01T06:54:52.145Z,3.20
2022-12-01T06:57:22.558Z,3.20
2022-12-01T06:59:53.017Z,3.30
2022-12-01T07:02:23.400Z,3.30
2022-12-01T07:04:53.468Z,3.20
2022-12-01T07:07:26.279Z,3.30
2022-12-01T07:09:56.306Z,3.40
2022-12-01T07:12:26.412Z,3.40
2022-12-01T07:14:56.453Z,3.60
2022-12-01T07:17:26.595Z,3.40
2022-12-01T07:19:56.639Z,3.50
2022-12-01T07:22:32.789Z,3.50
2022-12-01T07:25:03.170Z,3.50
2022-12-01T07:27:33.751Z,3.30
2022-12-01T07:30:04.314Z,3.20
2022-12-01T07:32:34.329Z,3.20
2022-12-01T07:35:04.353Z,3.20
2022-12-01T07:37:37.037Z,3.00
2022-12-01T07:40:10.317Z,3.00
2022-12-01T07:42:43.800Z,3.30
2022-12-01T07:45:14.152Z,3.40
2022-12-01T07:47:44.635Z,3.30
2022-12-01T07:50:15.253Z,3.40
2022-12-01T07:52:47.971Z,3.40
2022-12-01T07:55:18.150Z,3.40
2022-12-01T07:57:48.172Z,3.20
2022-12-01T08:00:19.440Z,3.30
2022-12-01T08:02:52.277Z,3.30
2022-12-01T08:05:22.359Z,3.30
2022-12-01T08:07:56.912Z,3.30
2022-12-01T08:10:26.931Z,3.30
2022-12-01T08:12:57.012Z,3.30
2022-12-01T08:15:27.419Z,3.30
2022-12-01T08:17:57.496Z,3.40
2022-12-01T08:20:27.728Z,3.30
2022-12-01T08:23:03.775Z,3.20
2022-12-01T08:25:33.826Z,3.20
2022-12-01T08:28:04.756Z,3.30
2022-12-01T08:30:34.900Z,3.30
2022-12-01T08:33:04.981Z,3.20
2022-12-01T08:35:38.788Z,3.20
2022-12-01T08:38:12.852Z,3.10
2022-12-01T08:40:42.865Z,3.20
2022-12-01T08:43:23.151Z,3.20
2022-12-01T08:46:04.089Z,3.30
2022-12-01T08:48:34.125Z,3.20
2022-12-01T08:51:07.810Z,3.20
2022-12-01T08:53:45.797Z,3.30
2022-12-01T08:56:20.378Z,3.30
2022-12-01T08:58:51.226Z,3.30
2022-12-01T09:01:22.676Z,3.30
2022-12-01T09:04:05.747Z,3.40
2022-12-01T09:06:42.077Z,3.50
2022-12-01T09:09:18.971Z,3.60
2022-12-01T09:11:52.254Z,3.80
2022-12-01T09:14:24.131Z,4.00
2022-12-01T09:16:54.532Z,4.20
2022-12-01T09:19:25.482Z,4.30
2022-12-01T09:21:55.990Z,4.20
2022-12-01T09:24:29.059Z,4.20
2022-12-01T09:27:03.346Z,4.20
2022-12-01T09:29:34.532Z,4.10
2022-12-01T09:32:04.645Z,4.10
2022-12-01T09:34:34.645Z,4.10
2022-12-01T09:37:04.979Z,4.00
2022-12-01T09:39:39.112Z,4.00
2022-12-01T09:42:18.612Z,4.00
2022-12-01T09:44:55.896Z,3.90
2022-12-01T09:47:31.684Z,3.90
2022-12-01T09:50:08.107Z,3.90
2022-12-01T09:52:44.834Z,4.00
2022-12-01T09:55:21.032Z,4.20
2022-12-01T09:57:54.620Z,4.30
2022-12-01T10:00:28.862Z,4.40
2022-12-01T10:03:09.905Z,4.40
2022-12-01T10:06:25.847Z,4.20
2022-12-01T10:08:59.529Z,4.20
2022-12-01T10:11:38.060Z,4.20
2022-12-01T10:14:20.014Z,4.10
2022-12-01T10:17:08.032Z,4.00
2022-12-01T10:19:53.868Z,4.00
2022-12-01T10:22:56.479Z,4.10
2022-12-01T10:25:30.309Z,4.30
2022-12-01T10:28:47.229Z,4.30
2022-12-01T10:31:24.266Z,4.50
2022-12-01T10:34:03.601Z,4.40
2022-12-01T10:36:36.352Z,4.40
2022-12-01T10:39:10.211Z,4.30
2022-12-01T10:41:43.000Z,4.40
2022-12-01T10:44:16.587Z,4.40
2022-12-01T10:46:51.929Z,4.30
2022-12-01T10:49:23.528Z,4.30
2022-12-01T10:51:57.459Z,4.30
2022-12-01T10:54:38.320Z,4.30
2022-12-01T10:57:17.593Z,4.40
2022-12-01T10:59:55.576Z,4.30
2022-12-01T11:02:30.399Z,4.40
2022-12-01T11:05:03.915Z,4.40
2022-12-01T11:07:38.549Z,4.50
2022-12-01T11:10:21.416Z,4.50
2022-12-01T11:12:59.898Z,4.50
2022-12-01T11:15:37.092Z,4.50
2022-12-01T11:18:10.037Z,4.50
2022-12-01T11:20:43.136Z,4.50
2022-12-01T11:23:29.883Z,4.50
2022-12-01T11:26:06.538Z,4.70
2022-12-01T11:28:38.726Z,4.70
2022-12-01T11:31:13.837Z,4.70
2022-12-01T11:33:52.719Z,4.70
2022-12-01T11:36:29.816Z,4.70
2022-12-01T11:39:03.651Z,4.50
2022-12-01T11:41:39.450Z,4.70
2022-12-01T11:44:43.538Z,4.70
2022-12-01T11:47:24.058Z,4.70
2022-12-01T11:50:00.671Z,4.70
2022-12-01T11:52:36.596Z,4.70
2022-12-01T11:55:24.790Z,4.70
2022-12-01T11:57:59.091Z,4.70
2022-12-01T12:00:33.259Z,4.60
2022-12-01T12:03:23.891Z,4.50
2022-12-01T12:09:39.020Z,4.80
2022-12-01T12:12:30.269Z,4.80
2022-12-01T12:15:18.803Z,4.90
2022-12-01T12:18:11.061Z,5.20
2022-12-01T12:21:00.628Z,5.40
2022-12-01T12:24:23.637Z,5.50
2022-12-01T12:27:07.301Z,5.70
2022-12-01T12:29:56.491Z,5.50
2022-12-01T12:32:50.400Z,5.50
2022-12-01T12:35:39.848Z,5.30
2022-12-01T12:38:35.892Z,5.40
2022-12-01T12:41:24.117Z,5.50
2022-12-01T12:44:19.322Z,5.40
2022-12-01T12:47:02.606Z,5.60
2022-12-01T12:49:47.437Z,5.80
2022-12-01T12:52:27.326Z,5.80
2022-12-01T12:55:04.522Z,6.00
2022-12-01T12:57:39.958Z,5.90
2022-12-01T13:00:18.737Z,5.80
2022-12-01T13:02:55.780Z,5.70
2022-12-01T13:05:34.100Z,5.60
2022-12-01T13:08:15.813Z,5.50
2022-12-01T13:10:54.311Z,5.40
2022-12-01T13:13:32.699Z,5.40
2022-12-01T13:16:07.001Z,5.30
2022-12-01T13:18:43.721Z,5.30
2022-12-01T13:21:21.875Z,5.10
2022-12-01T13:23:55.468Z,5.10
2022-12-01T13:26:26.468Z,5.00
2022-12-01T13:29:00.312Z,5.10
2022-12-01T13:31:30.799Z,5.10
2022-12-01T13:34:05.067Z,5.30
2022-12-01T13:36:52.226Z,5.30
2022-12-01T13:39:29.476Z,5.30
2022-12-01T13:42:09.846Z,5.20
2022-12-01T13:44:45.063Z,5.10
2022-12-01T13:47:39.864Z,5.00
2022-12-01T13:50:54.825Z,4.90
2022-12-01T13:53:37.569Z,4.90
2022-12-01T13:56:41.138Z,4.70
2022-12-01T14:00:06.042Z,4.60
2022-12-01T14:02:44.952Z,4.50
2022-12-01T14:05:53.745Z,4.50
2022-12-01T14:08:27.839Z,4.50
2022-12-01T14:11:02.307Z,4.50
2022-12-01T14:13:56.164Z,4.50
2022-12-01T14:16:27.766Z,4.50
2022-12-01T14:19:01.380Z,4.50
2022-12-01T14:21:52.543Z,4.50
2022-12-01T14:24:28.535Z,4.50
2022-12-01T14:26:59.042Z,4.50
2022-12-01T14:29:38.360Z,4.40
2022-12-01T14:32:29.228Z,4.40
2022-12-01T14:35:06.068Z,4.40
2022-12-01T14:37:52.426Z,4.40
2022-12-01T14:40:31.618Z,4.40
2022-12-01T14:43:17.505Z,4.40
2022-12-01T14:46:07.878Z,4.50
2022-12-01T14:48:45.805Z,4.40
2022-12-01T14:51:29.645Z,4.40
2022-12-01T14:54:03.446Z,4.30
2022-12-01T14:56:36.871Z,4.20
2022-12-01T14:59:22.708Z,4.20
2022-12-01T15:02:01.020Z,4.20
2022-12-01T15:04:31.151Z,4.20
2022-12-01T15:07:01.344Z,4.20
2022-12-01T15:09:34.370Z,4.30
2022-12-01T15:12:09.446Z,4.20
2022-12-01T15:14:49.516Z,4.20
2022-12-01T15:17:34.563Z,4.10
2022-12-01T15:20:05.242Z,4.10
2022-12-01T15:22:37.350Z,4.10
2022-12-01T15:25:17.667Z,4.10
2022-12-01T15:27:47.948Z,4.20
2022-12-01T15:30:19.794Z,4.30
2022-12-01T15:32:53.382Z,4.40
2022-12-01T15:35:26.006Z,4.30
2022-12-01T15:37:57.423Z,4.30
2022-12-01T15:41:20.721Z,4.30
2022-12-01T15:43:23.147Z,4.30
2022-12-01T15:45:59.249Z,4.20
2022-12-01T15:48:39.340Z,4.20
2022-12-01T15:51:16.483Z,4.20
2022-12-01T15:53:53.982Z,4.20
2022-12-01T15:56:31.313Z,4.20
2022-12-01T15:59:11.178Z,4.20
2022-12-01T16:01:43.451Z,4.20
2022-12-01T16:04:24.157Z,4.20
2022-12-01T16:07:07.418Z,4.30
2022-12-01T16:09:42.681Z,4.30
2022-12-01T16:12:27.421Z,4.30
2022-12-01T16:15:15.094Z,4.20
2022-12-01T16:17:49.020Z,4.10
2022-12-01T16:20:28.334Z,3.90
2022-12-01T16:23:01.837Z,3.90
2022-12-01T16:25:37.611Z,3.90
2022-12-01T16:28:10.247Z,3.80
2022-12-01T16:30:42.585Z,3.80
2022-12-01T16:33:20.369Z,3.80
2022-12-01T16:35:54.004Z,3.80
2022-12-01T16:38:28.366Z,3.90
2022-12-01T16:41:01.932Z,3.90
2022-12-01T16:43:33.661Z,4.00
2022-12-01T16:46:06.676Z,4.00
2022-12-01T16:48:37.807Z,3.90
2022-12-01T16:51:11.273Z,4.00
2022-12-01T16:53:49.601Z,4.00
2022-12-01T16:56:20.907Z,4.10
2022-12-01T16:58:50.886Z,4.10
2022-12-01T17:01:21.027Z,4.10
2022-12-01T17:03:51.043Z,4.20
2022-12-01T17:06:23.979Z,4.10
2022-12-01T17:08:54.014Z,4.10
2022-12-01T17:11:24.004Z,4.10
2022-12-01T17:13:54.024Z,4.10
2022-12-01T17:16:24.121Z,4.20
2022-12-01T17:18:54.168Z,4.20
2022-12-01T17:21:26.769Z,4.20
2022-12-01T17:23:56.933Z,4.10
2022-12-01T17:26:27.167Z,4.20
2022-12-01T17:28:57.812Z,4.20
2022-12-01T17:31:27.992Z,4.20
2022-12-01T17:33:58.248Z,4.20
2022-12-01T17:36:30.873Z,4.30
2022-12-01T17:39:00.986Z,4.30
2022-12-01T17:41:35.633Z,4.30
2022-12-01T17:44:06.316Z,4.40
2022-12-01T17:46:37.368Z,4.60
2022-12-01T17:49:09.491Z,4.60
2022-12-01T17:51:43.929Z,4.60
2022-12-01T17:54:14.123Z,4.60
2022-12-01T17:56:44.283Z,4.60
2022-12-01T17:59:14.586Z,4.60
2022-12-01T18:01:44.641Z,4.50
2022-12-01T18:04:14.622Z,4.50
2022-12-01T18:06:53.605Z,4.60
2022-12-01T18:09:24.819Z,4.70
2022-12-01T18:11:57.541Z,4.80
2022-12-01T18:14:28.735Z,4.70
2022-12-01T18:16:58.788Z,4.70
2022-12-01T18:19:29.280Z,4.70
2022-12-01T18:22:02.282Z,4.70
2022-12-01T18:24:32.381Z,4.60
2022-12-01T18:27:02.382Z,4.60
2022-12-01T18:29:32.479Z,4.50
2022-12-01T18:32:04.005Z,4.40
2022-12-01T18:34:34.063Z,4.20
2022-12-01T18:37:08.177Z,4.30
2022-12-01T18:39:38.305Z,4.30
2022-12-01T18:42:08.561Z,4.30
2022-12-01T18:44:38.897Z,4.30
2022-12-01T18:47:09.342Z,4.30
2022-12-01T18:49:39.462Z,4.30
2022-12-01T18:52:12.955Z,4.10
2022-12-01T18:54:43.177Z,4.10
2022-12-01T18:57:14.669Z,4.10
2022-12-01T18:59:44.677Z,4.10
2022-12-01T19:02:14.943Z,4.10
2022-12-01T19:04:45.312Z,4.00
2022-12-01T19:07:18.473Z,4.00
2022-12-01T19:09:49.114Z,3.90
2022-12-01T19:12:19.340Z,3.90
2022-12-01T19:14:49.826Z,4.00
2022-12-01T19:17:20.147Z,4.00
2022-12-01T19:19:51.011Z,4.00
2022-12-01T19:22:23.936Z,4.00
2022-12-01T19:24:54.420Z,4.00
2022-12-01T19:27:24.568Z,4.00
2022-12-01T19:29:54.805Z,4.00
2022-12-01T19:32:25.828Z,4.00
2022-12-01T19:34:55.904Z,4.00
2022-12-01T19:37:28.836Z,3.90
2022-12-01T19:39:58.817Z,4.00
2022-12-01T19:42:30.249Z,4.10
2022-12-01T19:45:01.254Z,4.10
2022-12-01T19:47:34.477Z,4.00
2022-12-01T19:50:04.740Z,4.10
2022-12-01T19:52:37.400Z,4.10
2022-12-01T19:55:08.610Z,4.10
2022-12-01T19:57:38.637Z,4.00
2022-12-01T20:00:10.763Z,4.00
2022-12-01T20:02:44.148Z,4.00
2022-12-01T20:05:14.325Z,4.00
2022-12-01T20:07:47.632Z,4.10
2022-12-01T20:10:20.369Z,4.00
2022-12-01T20:12:50.897Z,4.10
2022-12-01T20:15:21.076Z,4.10
2022-12-01T20:17:51.068Z,4.00
2022-12-01T20:20:21.163Z,4.00
2022-12-01T20:22:53.794Z,3.90
2022-12-01T20:25:23.886Z,4.00
2022-12-01T20:27:53.948Z,4.10
2022-12-01T20:30:25.090Z,4.10
2022-12-01T20:32:55.159Z,4.00
2022-12-01T20:35:25.255Z,4.10
2022-12-01T20:37:57.849Z,4.10
2022-12-01T20:40:27.848Z,4.20
2022-12-01T20:42:57.943Z,4.20
2022-12-01T20:45:28.105Z,4.10
2022-12-01T20:47:58.124Z,4.10
2022-12-01T20:50:28.232Z,4.20
2022-12-01T20:53:00.870Z,4.10
2022-12-01T20:55:30.979Z,4.10
2022-12-01T20:58:02.742Z,4.00
2022-12-01T21:00:33.378Z,4.00
2022-12-01T21:03:03.557Z,4.00
2022-12-01T21:05:35.248Z,4.00
2022-12-01T21:08:11.622Z,3.90
2022-12-01T21:10:44.805Z,3.90
2022-12-01T21:13:34.909Z,3.90
2022-12-01T21:16:10.947Z,3.90
2022-12-01T21:18:53.364Z,3.90
2022-12-01T21:21:27.644Z,3.80
2022-12-01T21:24:15.624Z,3.80
2022-12-01T21:26:51.288Z,3.90
2022-12-01T21:29:25.228Z,3.90
2022-12-01T21:32:01.635Z,3.80
2022-12-01T21:34:32.549Z,3.80
2022-12-01T21:37:09.963Z,3.80
2022-12-01T21:39:43.158Z,3.90
2022-12-01T21:42:21.226Z,3.90
2022-12-01T21:44:51.834Z,3.80
2022-12-01T21:47:25.352Z,3.80
2022-12-01T21:49:59.867Z,3.90
2022-12-01T21:52:42.618Z,4.00
2022-12-01T21:55:41.253Z,4.00
2022-12-01T21:58:29.073Z,4.10
2022-12-01T22:01:01.836Z,4.10
2022-12-01T22:03:35.692Z,4.10
2022-12-01T22:06:33.986Z,4.00
2022-12-01T22:09:15.272Z,4.00
2022-12-01T22:11:54.649Z,4.00
2022-12-01T22:14:30.622Z,3.90
2022-12-01T22:17:21.956Z,3.90
2022-12-01T22:20:00.310Z,3.90
2022-12-01T22:22:32.802Z,3.90
2022-12-01T22:25:21.780Z,3.90
2022-12-01T22:27:58.236Z,3.90
2022-12-01T22:30:28.403Z,3.90
2022-12-01T22:33:03.739Z,3.80
2022-12-01T22:35:42.024Z,3.90
2022-12-01T22:38:31.123Z,3.90
2022-12-01T22:41:06.323Z,3.90
2022-12-01T22:43:48.047Z,3.90
2022-12-01T22:46:25.746Z,3.80
2022-12-01T22:48:58.580Z,3.80
2022-12-01T22:51:44.549Z,3.80
2022-12-01T22:54:40.239Z,3.90
2022-12-01T22:57:28.425Z,3.90
2022-12-01T23:00:15.001Z,3.80
2022-12-01T23:02:45.509Z,3.80
2022-12-01T23:05:27.498Z,3.90
2022-12-01T23:07:58.588Z,3.80
2022-12-01T23:10:33.110Z,3.80
2022-12-01T23:13:15.505Z,3.80
2022-12-01T23:15:50.787Z,3.80
2022-12-01T23:18:24.924Z,3.80
2022-12-01T23:20:58.356Z,3.70
2022-12-01T23:23:33.114Z,3.70
2022-12-01T23:26:06.419Z,3.80
2022-12-01T23:28:41.419Z,3.80
2022-12-01T23:31:14.511Z,3.80
2022-12-01T23:33:47.605Z,3.80
2022-12-01T23:36:21.825Z,3.80
2022-12-01T23:38:58.286Z,3.80
2022-12-01T23:41:35.263Z,3.80
2022-12-01T23:44:18.869Z,3.80
2022-12-01T23:46:55.739Z,3.90
2022-12-01T23:49:31.607Z,3.90
2022-12-01T23:52:05.951Z,3.90
2022-12-01T23:54:37.865Z,3.90
2022-12-01T23:57:19.215Z,3.90
2022-12-01T23:59:49.444Z,3.90
